createdAt,value
2019-02-02T00:00:27.673Z,968.9
2019-02-02T00:01:29.030Z,969.0
2019-02-02T00:02:30.401Z,968.9
2019-02-02T00:03:31.760Z,969.0
2019-02-02T00:04:33.136Z,968.9
2019-02-02T00:05:34.509Z,968.9
2019-02-02T00:06:35.894Z,968.9
2019-02-02T00:07:37.261Z,968.9
2019-02-02T00:08:38.645Z,968.9
2019-02-02T00:09:39.988Z,968.8
2019-02-02T00:10:41.356Z,968.8
2019-02-02T00:11:42.716Z,968.7
2019-02-02T00:12:44.087Z,968.6
2019-02-02T00:13:45.458Z,968.6
2019-02-02T00:14:46.834Z,968.6
2019-02-02T00:15:48.191Z,968.6
2019-02-02T00:16:49.555Z,968.7
2019-02-02T00:17:50.919Z,968.7
2019-02-02T00:18:52.290Z,968.7
2019-02-02T00:19:55.801Z,968.7
2019-02-02T00:20:54.989Z,968.8
2019-02-02T00:21:56.361Z,968.8
2019-02-02T00:22:57.720Z,968.9
2019-02-02T00:23:59.110Z,968.9
2019-02-02T00:25:00.475Z,968.9
2019-02-02T00:26:01.835Z,968.9
2019-02-02T00:27:03.199Z,968.9
2019-02-02T00:28:04.569Z,968.9
2019-02-02T00:29:05.934Z,968.8
2019-02-02T00:30:07.295Z,968.8
2019-02-02T00:31:09.304Z,968.9
2019-02-02T00:32:10.699Z,968.9
2019-02-02T00:33:12.062Z,968.9
2019-02-02T00:34:13.431Z,968.9
2019-02-02T00:35:14.796Z,969.0
2019-02-02T00:36:16.161Z,969.0
2019-02-02T00:37:17.529Z,969.0
2019-02-02T00:38:18.897Z,969.0
2019-02-02T00:39:20.265Z,969.0
2019-02-02T00:40:21.665Z,969.1
2019-02-02T00:41:23.012Z,969.1
2019-02-02T00:42:24.378Z,969.0
2019-02-02T00:43:25.751Z,969.0
2019-02-02T00:44:27.110Z,969.0
2019-02-02T00:45:28.490Z,969.0
2019-02-02T00:46:29.858Z,968.9
2019-02-02T00:47:31.229Z,969.0
2019-02-02T00:48:32.597Z,969.0
2019-02-02T00:49:33.966Z,968.9
2019-02-02T00:50:35.345Z,969.0
2019-02-02T00:51:36.708Z,968.9
2019-02-02T00:52:38.096Z,968.9
2019-02-02T00:53:39.463Z,968.9
2019-02-02T00:54:40.829Z,968.9
2019-02-02T00:55:42.202Z,968.9
2019-02-02T00:56:43.561Z,968.9
2019-02-02T00:57:52.980Z,968.9
2019-02-02T00:58:46.278Z,968.9
2019-02-02T00:59:47.647Z,968.9
2019-02-02T01:00:49.029Z,968.9
2019-02-02T01:01:50.395Z,968.9
2019-02-02T01:02:51.768Z,968.9
2019-02-02T01:03:53.129Z,969.0
2019-02-02T01:04:54.493Z,969.0
2019-02-02T01:05:55.862Z,969.0
2019-02-02T01:06:57.221Z,969.0
2019-02-02T01:07:58.583Z,968.9
2019-02-02T01:08:59.945Z,968.9
2019-02-02T01:10:01.313Z,968.9
2019-02-02T01:11:02.687Z,968.9
2019-02-02T01:12:04.059Z,969.0
2019-02-02T01:13:05.423Z,969.0
2019-02-02T01:14:06.785Z,969.0
2019-02-02T01:15:08.156Z,969.0
2019-02-02T01:16:09.518Z,969.0
2019-02-02T01:17:10.888Z,969.0
2019-02-02T01:18:12.253Z,968.9
2019-02-02T01:19:13.722Z,968.9
2019-02-02T01:20:14.974Z,968.9
2019-02-02T01:21:16.342Z,968.9
2019-02-02T01:22:17.702Z,968.9
2019-02-02T01:23:19.069Z,968.9
2019-02-02T01:24:20.451Z,968.9
2019-02-02T01:25:21.822Z,968.9
2019-02-02T01:26:23.165Z,969.0
2019-02-02T01:27:24.585Z,969.0
2019-02-02T01:28:25.951Z,969.1
2019-02-02T01:29:27.316Z,969.2
2019-02-02T01:30:28.687Z,969.3
2019-02-02T01:31:30.063Z,969.3
2019-02-02T01:32:31.430Z,969.3
2019-02-02T01:33:32.800Z,969.3
2019-02-02T01:34:34.162Z,969.3
2019-02-02T01:35:35.539Z,969.3
2019-02-02T01:36:36.940Z,969.3
2019-02-02T01:37:38.331Z,969.3
2019-02-02T01:38:39.698Z,969.3
2019-02-02T01:39:41.065Z,969.2
2019-02-02T01:40:42.462Z,969.3
2019-02-02T01:41:43.815Z,969.3
2019-02-02T01:42:45.200Z,969.4
2019-02-02T01:43:46.558Z,969.4
2019-02-02T01:44:47.944Z,969.4
2019-02-02T01:45:49.299Z,969.4
2019-02-02T01:46:50.664Z,969.3
2019-02-02T01:47:52.070Z,969.3
2019-02-02T01:48:53.436Z,969.3
2019-02-02T01:49:54.816Z,969.3
2019-02-02T01:50:56.178Z,969.3
2019-02-02T01:51:57.542Z,969.3
2019-02-02T01:52:58.909Z,969.3
2019-02-02T01:54:00.295Z,969.3
2019-02-02T01:55:01.642Z,969.3
2019-02-02T01:56:03.051Z,969.3
2019-02-02T01:57:04.414Z,969.3
2019-02-02T01:58:15.927Z,969.3
2019-02-02T01:59:07.141Z,969.3
2019-02-02T02:00:08.506Z,969.3
2019-02-02T02:01:09.874Z,969.2
2019-02-02T02:02:11.234Z,969.3
2019-02-02T02:03:12.610Z,969.3
2019-02-02T02:04:13.977Z,969.3
2019-02-02T02:05:15.347Z,969.3
2019-02-02T02:06:16.759Z,969.3
2019-02-02T02:07:18.099Z,969.2
2019-02-02T02:08:19.546Z,969.2
2019-02-02T02:09:20.837Z,969.1
2019-02-02T02:10:22.200Z,969.1
2019-02-02T02:11:23.566Z,969.1
2019-02-02T02:12:24.931Z,969.1
2019-02-02T02:13:26.296Z,969.0
2019-02-02T02:14:27.674Z,969.0
2019-02-02T02:15:29.039Z,969.0
2019-02-02T02:16:30.402Z,969.0
2019-02-02T02:17:31.767Z,969.0
2019-02-02T02:18:33.130Z,968.9
2019-02-02T02:19:34.496Z,969.0
2019-02-02T02:20:35.867Z,968.9
2019-02-02T02:21:37.238Z,968.9
2019-02-02T02:22:41.172Z,968.9
2019-02-02T02:23:39.930Z,968.9
2019-02-02T02:24:41.299Z,969.0
2019-02-02T02:25:42.661Z,969.0
2019-02-02T02:26:44.032Z,969.0
2019-02-02T02:27:45.390Z,969.1
2019-02-02T02:28:46.772Z,969.1
2019-02-02T02:29:48.136Z,969.1
2019-02-02T02:30:49.510Z,969.1
2019-02-02T02:31:50.878Z,969.1
2019-02-02T02:32:52.247Z,969.1
2019-02-02T02:33:53.613Z,969.1
2019-02-02T02:34:54.985Z,969.1
2019-02-02T02:35:56.367Z,969.1
2019-02-02T02:36:57.735Z,969.1
2019-02-02T02:37:59.102Z,969.1
2019-02-02T02:39:00.472Z,969.1
2019-02-02T02:40:01.894Z,969.1
2019-02-02T02:41:03.255Z,969.1
2019-02-02T02:42:04.618Z,969.0
2019-02-02T02:43:05.985Z,969.0
2019-02-02T02:44:07.360Z,969.0
2019-02-02T02:45:08.734Z,969.0
2019-02-02T02:46:10.099Z,969.0
2019-02-02T02:47:11.464Z,969.0
2019-02-02T02:48:12.842Z,969.0
2019-02-02T02:49:14.203Z,969.1
2019-02-02T02:50:15.570Z,969.1
2019-02-02T02:51:16.938Z,969.1
2019-02-02T02:52:18.300Z,969.1
2019-02-02T02:53:19.672Z,969.0
2019-02-02T02:54:21.034Z,969.0
2019-02-02T02:55:22.398Z,969.0
2019-02-02T02:56:23.770Z,969.0
2019-02-02T02:57:25.128Z,968.9
2019-02-02T02:58:26.554Z,968.9
2019-02-02T02:59:27.932Z,968.9
2019-02-02T03:00:29.311Z,969.0
2019-02-02T03:01:30.730Z,969.0
2019-02-02T03:02:32.076Z,969.0
2019-02-02T03:03:33.450Z,969.0
2019-02-02T03:04:34.816Z,969.0
2019-02-02T03:05:36.193Z,969.0
2019-02-02T03:06:37.557Z,969.0
2019-02-02T03:07:38.924Z,969.0
2019-02-02T03:08:40.334Z,969.0
2019-02-02T03:09:41.703Z,969.0
2019-02-02T03:10:43.094Z,969.1
2019-02-02T03:11:44.460Z,969.1
2019-02-02T03:12:45.832Z,969.2
2019-02-02T03:13:47.185Z,969.3
2019-02-02T03:14:48.551Z,969.4
2019-02-02T03:15:49.919Z,969.3
2019-02-02T03:16:51.290Z,969.4
2019-02-02T03:17:52.663Z,969.4
2019-02-02T03:18:54.035Z,969.4
2019-02-02T03:19:55.409Z,969.4
2019-02-02T03:20:56.764Z,969.3
2019-02-02T03:21:58.133Z,969.3
2019-02-02T03:22:59.498Z,969.3
2019-02-02T03:24:00.853Z,969.4
2019-02-02T03:25:02.227Z,969.4
2019-02-02T03:26:03.614Z,969.3
2019-02-02T03:27:04.981Z,969.3
2019-02-02T03:28:06.348Z,969.3
2019-02-02T03:29:07.705Z,969.3
2019-02-02T03:30:09.069Z,969.2
2019-02-02T03:31:10.433Z,969.1
2019-02-02T03:32:11.820Z,969.2
2019-02-02T03:33:13.177Z,969.3
2019-02-02T03:34:14.545Z,969.4
2019-02-02T03:35:15.895Z,969.4
2019-02-02T03:36:17.267Z,969.4
2019-02-02T03:37:18.630Z,969.3
2019-02-02T03:38:19.990Z,969.4
2019-02-02T03:39:21.357Z,969.4
2019-02-02T03:40:22.729Z,969.4
2019-02-02T03:41:24.097Z,969.4
2019-02-02T03:42:25.461Z,969.4
2019-02-02T03:43:26.825Z,969.4
2019-02-02T03:44:28.197Z,969.5
2019-02-02T03:45:29.572Z,969.6
2019-02-02T03:46:30.938Z,969.6
2019-02-02T03:47:32.303Z,969.6
2019-02-02T03:48:33.674Z,969.6
2019-02-02T03:49:35.039Z,969.6
2019-02-02T03:50:36.403Z,969.6
2019-02-02T03:51:37.789Z,969.7
2019-02-02T03:52:39.165Z,969.7
2019-02-02T03:53:41.409Z,969.7
2019-02-02T03:54:41.863Z,969.8
2019-02-02T03:55:43.227Z,969.9
2019-02-02T03:56:44.593Z,969.9
2019-02-02T03:57:45.955Z,969.9
2019-02-02T03:58:47.319Z,969.9
2019-02-02T03:59:48.704Z,969.8
2019-02-02T04:00:50.071Z,969.8
2019-02-02T04:01:51.436Z,969.8
2019-02-02T04:02:52.880Z,969.8
2019-02-02T04:03:54.244Z,969.8
2019-02-02T04:04:55.615Z,969.7
2019-02-02T04:05:56.977Z,969.7
2019-02-02T04:06:58.374Z,969.7
2019-02-02T04:07:59.743Z,969.7
2019-02-02T04:09:01.111Z,969.7
2019-02-02T04:10:02.471Z,969.7
2019-02-02T04:11:03.832Z,969.7
2019-02-02T04:12:05.196Z,969.7
2019-02-02T04:13:06.577Z,969.7
2019-02-02T04:14:07.928Z,969.7
2019-02-02T04:15:09.296Z,969.7
2019-02-02T04:16:10.675Z,969.7
2019-02-02T04:17:12.043Z,969.8
2019-02-02T04:18:13.403Z,969.9
2019-02-02T04:19:14.774Z,969.9
2019-02-02T04:20:16.147Z,970.0
2019-02-02T04:21:17.512Z,970.0
2019-02-02T04:22:18.879Z,970.1
2019-02-02T04:23:20.245Z,970.2
2019-02-02T04:24:21.636Z,970.2
2019-02-02T04:25:22.988Z,970.0
2019-02-02T04:26:24.353Z,970.0
2019-02-02T04:27:25.723Z,970.0
2019-02-02T04:28:27.120Z,969.9
2019-02-02T04:29:28.478Z,969.9
2019-02-02T04:30:29.847Z,969.9
2019-02-02T04:31:31.217Z,969.9
2019-02-02T04:32:32.579Z,970.0
2019-02-02T04:33:33.945Z,970.1
2019-02-02T04:34:35.305Z,970.1
2019-02-02T04:35:36.669Z,970.1
2019-02-02T04:36:38.035Z,970.2
2019-02-02T04:37:39.473Z,970.2
2019-02-02T04:38:40.736Z,970.3
2019-02-02T04:39:42.093Z,970.3
2019-02-02T04:40:44.148Z,970.3
2019-02-02T04:41:45.512Z,970.3
2019-02-02T04:42:46.879Z,970.2
2019-02-02T04:43:48.267Z,970.2
2019-02-02T04:44:49.611Z,970.1
2019-02-02T04:45:50.995Z,970.0
2019-02-02T04:46:52.346Z,970.1
2019-02-02T04:47:53.719Z,970.1
2019-02-02T04:48:55.084Z,970.3
2019-02-02T04:49:56.451Z,970.3
2019-02-02T04:50:57.819Z,970.4
2019-02-02T04:51:59.181Z,970.5
2019-02-02T04:53:00.556Z,970.5
2019-02-02T04:54:01.924Z,970.5
2019-02-02T04:55:03.282Z,970.5
2019-02-02T04:56:04.644Z,970.4
2019-02-02T04:57:06.014Z,970.4
2019-02-02T04:58:07.392Z,970.4
2019-02-02T04:59:08.767Z,970.4
2019-02-02T05:00:10.131Z,970.3
2019-02-02T05:01:11.492Z,970.3
2019-02-02T05:02:12.852Z,970.3
2019-02-02T05:03:14.224Z,970.2
2019-02-02T05:04:15.586Z,970.1
2019-02-02T05:05:16.953Z,970.0
2019-02-02T05:06:18.326Z,970.0
2019-02-02T05:07:19.688Z,969.8
2019-02-02T05:08:21.056Z,969.8
2019-02-02T05:09:22.431Z,969.8
2019-02-02T05:10:23.808Z,969.7
2019-02-02T05:11:25.179Z,969.7
2019-02-02T05:12:26.541Z,969.7
2019-02-02T05:13:27.909Z,969.7
2019-02-02T05:14:29.347Z,969.7
2019-02-02T05:15:30.724Z,969.8
2019-02-02T05:16:32.066Z,969.8
2019-02-02T05:17:33.445Z,969.8
2019-02-02T05:18:34.809Z,969.8
2019-02-02T05:19:36.169Z,969.8
2019-02-02T05:20:37.546Z,969.8
2019-02-02T05:21:38.920Z,969.9
2019-02-02T05:22:40.307Z,969.9
2019-02-02T05:23:41.685Z,969.9
2019-02-02T05:24:43.040Z,970.0
2019-02-02T05:25:44.416Z,970.1
2019-02-02T05:26:45.799Z,970.2
2019-02-02T05:27:47.282Z,970.3
2019-02-02T05:28:48.494Z,970.3
2019-02-02T05:29:49.847Z,970.4
2019-02-02T05:30:51.231Z,970.4
2019-02-02T05:31:52.597Z,970.4
2019-02-02T05:32:53.958Z,970.4
2019-02-02T05:33:55.336Z,970.5
2019-02-02T05:34:56.691Z,970.5
2019-02-02T05:35:58.057Z,970.5
2019-02-02T05:36:59.422Z,970.4
2019-02-02T05:38:00.785Z,970.4
2019-02-02T05:39:02.145Z,970.4
2019-02-02T05:40:03.512Z,970.3
2019-02-02T05:41:04.895Z,970.3
2019-02-02T05:42:06.258Z,970.3
2019-02-02T05:43:07.628Z,970.4
2019-02-02T05:44:08.997Z,970.4
2019-02-02T05:45:10.363Z,970.4
2019-02-02T05:46:11.737Z,970.4
2019-02-02T05:47:13.120Z,970.4
2019-02-02T05:48:14.482Z,970.5
2019-02-02T05:49:15.858Z,970.5
2019-02-02T05:50:17.221Z,970.5
2019-02-02T05:51:18.594Z,970.5
2019-02-02T05:52:19.998Z,970.4
2019-02-02T05:53:21.350Z,970.4
2019-02-02T05:54:22.720Z,970.4
2019-02-02T05:55:24.083Z,970.3
2019-02-02T05:56:25.453Z,970.2
2019-02-02T05:57:26.813Z,970.1
2019-02-02T05:58:28.184Z,970.1
2019-02-02T05:59:29.549Z,970.1
2019-02-02T06:00:30.905Z,970.2
2019-02-02T06:01:32.283Z,970.2
2019-02-02T06:02:33.638Z,970.1
2019-02-02T06:03:35.012Z,970.1
2019-02-02T06:04:36.415Z,970.1
2019-02-02T06:05:37.778Z,970.2
2019-02-02T06:06:39.147Z,970.4
2019-02-02T06:07:40.511Z,970.5
2019-02-02T06:08:41.886Z,970.6
2019-02-02T06:09:43.249Z,970.6
2019-02-02T06:10:44.609Z,970.6
2019-02-02T06:11:45.986Z,970.6
2019-02-02T06:12:47.351Z,970.6
2019-02-02T06:13:48.707Z,970.6
2019-02-02T06:14:50.073Z,970.6
2019-02-02T06:15:51.445Z,970.6
2019-02-02T06:16:52.810Z,970.6
2019-02-02T06:17:54.192Z,970.6
2019-02-02T06:18:55.562Z,970.7
2019-02-02T06:19:56.924Z,970.7
2019-02-02T06:20:58.291Z,970.7
2019-02-02T06:21:59.644Z,970.7
2019-02-02T06:23:01.020Z,970.7
2019-02-02T06:24:02.381Z,970.7
2019-02-02T06:25:03.754Z,970.8
2019-02-02T06:26:05.112Z,970.8
2019-02-02T06:27:06.477Z,970.9
2019-02-02T06:28:07.850Z,970.9
2019-02-02T06:29:09.257Z,970.9
2019-02-02T06:30:10.571Z,971.0
2019-02-02T06:31:11.966Z,971.0
2019-02-02T06:32:13.339Z,971.0
2019-02-02T06:33:14.736Z,971.0
2019-02-02T06:34:16.102Z,971.0
2019-02-02T06:35:17.467Z,971.1
2019-02-02T06:36:18.825Z,971.1
2019-02-02T06:37:20.193Z,971.2
2019-02-02T06:38:21.566Z,971.2
2019-02-02T06:39:22.927Z,971.2
2019-02-02T06:40:24.294Z,971.1
2019-02-02T06:41:25.656Z,971.1
2019-02-02T06:42:27.023Z,971.1
2019-02-02T06:43:30.269Z,971.1
2019-02-02T06:44:29.715Z,971.2
2019-02-02T06:45:31.080Z,971.2
2019-02-02T06:46:43.000Z,971.2
2019-02-02T06:47:33.770Z,971.3
2019-02-02T06:48:35.140Z,971.4
2019-02-02T06:49:36.503Z,971.4
2019-02-02T06:50:37.868Z,971.5
2019-02-02T06:51:39.242Z,971.5
2019-02-02T06:52:40.608Z,971.5
2019-02-02T06:53:41.979Z,971.5
2019-02-02T06:54:43.359Z,971.5
2019-02-02T06:55:44.729Z,971.5
2019-02-02T06:56:46.106Z,971.5
2019-02-02T06:57:47.465Z,971.5
2019-02-02T06:58:48.841Z,971.5
2019-02-02T06:59:50.204Z,971.6
2019-02-02T07:00:51.571Z,971.6
2019-02-02T07:01:52.946Z,971.6
2019-02-02T07:02:54.418Z,971.6
2019-02-02T07:03:55.626Z,971.5
2019-02-02T07:04:57.001Z,971.6
2019-02-02T07:05:58.368Z,971.5
2019-02-02T07:06:59.726Z,971.5
2019-02-02T07:08:01.142Z,971.6
2019-02-02T07:09:02.521Z,971.5
2019-02-02T07:10:03.887Z,971.6
2019-02-02T07:11:05.253Z,971.6
2019-02-02T07:12:06.613Z,971.7
2019-02-02T07:13:07.980Z,971.7
2019-02-02T07:14:09.347Z,971.8
2019-02-02T07:15:10.714Z,971.7
2019-02-02T07:16:12.101Z,971.7
2019-02-02T07:17:13.455Z,971.7
2019-02-02T07:18:14.834Z,971.7
2019-02-02T07:19:16.197Z,971.7
2019-02-02T07:20:17.563Z,971.7
2019-02-02T07:21:18.949Z,971.8
2019-02-02T07:22:20.327Z,971.8
2019-02-02T07:23:21.694Z,971.9
2019-02-02T07:24:23.058Z,971.9
2019-02-02T07:25:24.423Z,971.9
2019-02-02T07:26:25.819Z,971.9
2019-02-02T07:27:27.181Z,972.0
2019-02-02T07:28:28.575Z,971.9
2019-02-02T07:29:29.956Z,972.0
2019-02-02T07:30:31.324Z,972.0
2019-02-02T07:31:32.681Z,972.0
2019-02-02T07:32:34.046Z,972.1
2019-02-02T07:33:35.432Z,972.1
2019-02-02T07:34:36.785Z,972.2
2019-02-02T07:35:38.171Z,972.2
2019-02-02T07:36:40.137Z,972.2
2019-02-02T07:37:41.512Z,972.2
2019-02-02T07:38:42.905Z,972.2
2019-02-02T07:39:44.243Z,972.2
2019-02-02T07:40:45.606Z,972.3
2019-02-02T07:41:46.972Z,972.3
2019-02-02T07:42:48.335Z,972.3
2019-02-02T07:43:49.703Z,972.3
2019-02-02T07:44:51.063Z,972.4
2019-02-02T07:45:52.441Z,972.4
2019-02-02T07:46:53.807Z,972.4
2019-02-02T07:47:55.177Z,972.3
2019-02-02T07:48:56.550Z,972.3
2019-02-02T07:49:57.912Z,972.4
2019-02-02T07:50:59.291Z,972.4
2019-02-02T07:52:00.659Z,972.4
2019-02-02T07:53:02.034Z,972.4
2019-02-02T07:54:03.410Z,972.4
2019-02-02T07:55:04.783Z,972.4
2019-02-02T07:56:06.151Z,972.4
2019-02-02T07:57:07.552Z,972.5
2019-02-02T07:58:08.912Z,972.5
2019-02-02T07:59:10.285Z,972.5
2019-02-02T08:00:11.651Z,972.6
2019-02-02T08:01:13.022Z,972.6
2019-02-02T08:02:14.387Z,972.6
2019-02-02T08:03:15.764Z,972.7
2019-02-02T08:04:17.133Z,972.7
2019-02-02T08:05:18.493Z,972.6
2019-02-02T08:06:19.873Z,972.6
2019-02-02T08:07:21.238Z,972.6
2019-02-02T08:08:22.602Z,972.7
2019-02-02T08:09:23.973Z,972.7
2019-02-02T08:10:25.340Z,972.7
2019-02-02T08:11:26.739Z,972.7
2019-02-02T08:12:28.119Z,972.7
2019-02-02T08:13:29.486Z,972.8
2019-02-02T08:14:30.852Z,972.8
2019-02-02T08:15:32.341Z,972.8
2019-02-02T08:16:33.543Z,972.8
2019-02-02T08:17:34.910Z,972.8
2019-02-02T08:18:36.307Z,972.7
2019-02-02T08:19:37.685Z,972.7
2019-02-02T08:20:39.048Z,972.7
2019-02-02T08:21:40.417Z,972.7
2019-02-02T08:22:41.784Z,972.7
2019-02-02T08:23:43.183Z,972.7
2019-02-02T08:24:44.547Z,972.7
2019-02-02T08:25:45.914Z,972.8
2019-02-02T08:26:47.275Z,972.8
2019-02-02T08:27:48.657Z,972.9
2019-02-02T08:28:50.014Z,972.9
2019-02-02T08:29:51.388Z,972.9
2019-02-02T08:30:52.932Z,972.9
2019-02-02T08:31:54.085Z,972.9
2019-02-02T08:32:55.444Z,972.9
2019-02-02T08:33:56.829Z,972.9
2019-02-02T08:34:58.182Z,973.0
2019-02-02T08:35:59.554Z,973.0
2019-02-02T08:37:01.568Z,973.0
2019-02-02T08:38:03.185Z,973.1
2019-02-02T08:39:04.551Z,973.1
2019-02-02T08:40:05.917Z,973.1
2019-02-02T08:41:07.288Z,973.1
2019-02-02T08:42:08.656Z,973.2
2019-02-02T08:43:10.017Z,973.1
2019-02-02T08:44:11.381Z,973.1
2019-02-02T08:45:12.780Z,973.2
2019-02-02T08:46:14.155Z,973.2
2019-02-02T08:47:15.531Z,973.3
2019-02-02T08:48:16.894Z,973.2
2019-02-02T08:49:18.262Z,973.3
2019-02-02T08:50:19.623Z,973.3
2019-02-02T08:51:20.991Z,973.3
2019-02-02T08:52:22.372Z,973.3
2019-02-02T08:53:23.741Z,973.3
2019-02-02T08:54:25.090Z,973.3
2019-02-02T08:55:26.505Z,973.3
2019-02-02T08:56:27.833Z,973.3
2019-02-02T08:57:29.196Z,973.3
2019-02-02T08:58:30.564Z,973.2
2019-02-02T08:59:31.961Z,973.3
2019-02-02T09:00:33.320Z,973.3
2019-02-02T09:01:34.695Z,973.3
2019-02-02T09:02:36.068Z,973.2
2019-02-02T09:03:37.434Z,973.3
2019-02-02T09:04:38.850Z,973.3
2019-02-02T09:05:40.157Z,973.4
2019-02-02T09:06:41.511Z,973.4
2019-02-02T09:07:42.886Z,973.4
2019-02-02T09:08:44.251Z,973.4
2019-02-02T09:09:45.624Z,973.5
2019-02-02T09:10:47.008Z,973.5
2019-02-02T09:11:48.906Z,973.5
2019-02-02T09:12:49.721Z,973.6
2019-02-02T09:13:51.084Z,973.6
2019-02-02T09:14:52.472Z,973.6
2019-02-02T09:15:53.838Z,973.6
2019-02-02T09:16:55.205Z,973.6
2019-02-02T09:17:56.585Z,973.6
2019-02-02T09:18:57.979Z,973.6
2019-02-02T09:19:59.320Z,973.6
2019-02-02T09:21:00.689Z,973.6
2019-02-02T09:22:02.057Z,973.6
2019-02-02T09:23:06.553Z,973.6
2019-02-02T09:24:04.772Z,973.7
2019-02-02T09:25:06.124Z,973.6
2019-02-02T09:26:07.495Z,973.7
2019-02-02T09:27:08.888Z,973.7
2019-02-02T09:28:10.435Z,973.7
2019-02-02T09:29:11.637Z,973.7
2019-02-02T09:30:15.329Z,973.8
2019-02-02T09:31:15.991Z,973.7
2019-02-02T09:32:15.667Z,973.8
2019-02-02T09:33:17.035Z,973.8
2019-02-02T09:34:18.402Z,973.9
2019-02-02T09:35:19.775Z,974.0
2019-02-02T09:36:21.127Z,974.0
2019-02-02T09:37:22.503Z,974.0
2019-02-02T09:38:23.907Z,974.0
2019-02-02T09:39:25.290Z,974.0
2019-02-02T09:40:26.654Z,974.0
2019-02-02T09:41:28.019Z,974.0
2019-02-02T09:42:29.376Z,974.0
2019-02-02T09:43:30.752Z,974.0
2019-02-02T09:44:32.122Z,974.0
2019-02-02T09:45:33.488Z,974.0
2019-02-02T09:46:34.887Z,974.0
2019-02-02T09:47:36.249Z,974.0
2019-02-02T09:48:37.619Z,974.1
2019-02-02T09:49:38.980Z,974.1
2019-02-02T09:50:40.365Z,974.1
2019-02-02T09:51:41.737Z,974.1
2019-02-02T09:52:43.497Z,974.1
2019-02-02T09:53:45.257Z,974.1
2019-02-02T09:54:46.613Z,974.1
2019-02-02T09:55:47.985Z,974.1
2019-02-02T09:56:49.319Z,974.1
2019-02-02T09:57:50.678Z,974.1
2019-02-02T09:58:52.084Z,974.1
2019-02-02T09:59:53.425Z,974.2
2019-02-02T10:00:54.824Z,974.1
2019-02-02T10:01:56.191Z,974.2
2019-02-02T10:02:57.558Z,974.2
2019-02-02T10:03:58.924Z,974.1
2019-02-02T10:05:00.359Z,974.0
2019-02-02T10:06:01.634Z,974.0
2019-02-02T10:07:03.682Z,974.0
2019-02-02T10:08:05.053Z,974.0
2019-02-02T10:09:06.424Z,974.0
2019-02-02T10:10:07.796Z,974.0
2019-02-02T10:11:09.156Z,974.0
2019-02-02T10:12:10.525Z,974.0
2019-02-02T10:13:11.894Z,974.0
2019-02-02T10:14:13.264Z,974.0
2019-02-02T10:15:14.633Z,974.0
2019-02-02T10:16:15.999Z,974.0
2019-02-02T10:17:17.403Z,974.1
2019-02-02T10:18:18.765Z,974.1
2019-02-02T10:19:20.162Z,974.0
2019-02-02T10:20:21.526Z,974.1
2019-02-02T10:21:22.902Z,974.0
2019-02-02T10:22:24.585Z,974.1
2019-02-02T10:23:25.912Z,974.1
2019-02-02T10:24:28.641Z,974.1
2019-02-02T10:25:28.631Z,974.1
2019-02-02T10:26:30.019Z,974.1
2019-02-02T10:27:31.388Z,974.1
2019-02-02T10:28:32.746Z,974.1
2019-02-02T10:29:34.137Z,974.2
2019-02-02T10:30:35.501Z,974.2
2019-02-02T10:31:39.823Z,974.1
2019-02-02T10:32:38.305Z,974.1
2019-02-02T10:33:39.686Z,974.2
2019-02-02T10:34:41.046Z,974.2
2019-02-02T10:35:42.440Z,974.2
2019-02-02T10:36:43.808Z,974.2
2019-02-02T10:37:45.175Z,974.2
2019-02-02T10:38:46.558Z,974.2
2019-02-02T10:39:47.928Z,974.3
2019-02-02T10:40:49.294Z,974.2
2019-02-02T10:41:50.662Z,974.3
2019-02-02T10:42:52.046Z,974.3
2019-02-02T10:43:53.411Z,974.4
2019-02-02T10:44:54.780Z,974.4
2019-02-02T10:45:56.142Z,974.4
2019-02-02T10:46:57.506Z,974.4
2019-02-02T10:47:58.874Z,974.4
2019-02-02T10:49:00.249Z,974.4
2019-02-02T10:50:01.663Z,974.5
2019-02-02T10:51:03.040Z,974.5
2019-02-02T10:52:04.410Z,974.5
2019-02-02T10:53:05.779Z,974.5
2019-02-02T10:54:07.143Z,974.5
2019-02-02T10:55:08.548Z,974.5
2019-02-02T10:56:09.950Z,974.6
2019-02-02T10:57:11.306Z,974.5
2019-02-02T10:58:12.683Z,974.6
2019-02-02T10:59:14.041Z,974.6
2019-02-02T11:00:15.409Z,974.6
2019-02-02T11:01:16.778Z,974.6
2019-02-02T11:02:18.167Z,974.7
2019-02-02T11:03:19.518Z,974.7
2019-02-02T11:04:20.938Z,974.7
2019-02-02T11:05:22.339Z,974.7
2019-02-02T11:06:23.841Z,974.7
2019-02-02T11:07:25.091Z,974.7
2019-02-02T11:08:26.589Z,974.7
2019-02-02T11:09:27.756Z,974.7
2019-02-02T11:10:29.126Z,974.7
2019-02-02T11:11:30.592Z,974.7
2019-02-02T11:12:32.001Z,974.6
2019-02-02T11:13:33.229Z,974.7
2019-02-02T11:14:34.645Z,974.7
2019-02-02T11:15:35.898Z,974.6
2019-02-02T11:16:37.373Z,974.7
2019-02-02T11:17:38.762Z,974.7
2019-02-02T11:18:40.026Z,974.7
2019-02-02T11:19:41.372Z,974.7
2019-02-02T11:20:42.595Z,974.7
2019-02-02T11:21:44.103Z,974.8
2019-02-02T11:22:45.342Z,974.8
2019-02-02T11:23:46.803Z,974.8
2019-02-02T11:24:48.005Z,974.8
2019-02-02T11:25:49.367Z,974.8
2019-02-02T11:26:50.880Z,974.8
2019-02-02T11:27:52.117Z,974.8
2019-02-02T11:28:53.626Z,974.8
2019-02-02T11:29:54.917Z,974.8
2019-02-02T11:30:56.177Z,974.8
2019-02-02T11:32:02.838Z,974.8
2019-02-02T11:32:58.886Z,974.8
2019-02-02T11:34:00.282Z,974.8
2019-02-02T11:35:01.655Z,974.8
2019-02-02T11:36:03.018Z,974.8
2019-02-02T11:37:04.388Z,974.8
2019-02-02T11:38:05.763Z,974.8
2019-02-02T11:39:07.139Z,974.8
2019-02-02T11:40:08.518Z,974.8
2019-02-02T11:41:09.902Z,974.8
2019-02-02T11:42:11.294Z,974.8
2019-02-02T11:43:12.654Z,974.8
2019-02-02T11:44:14.013Z,974.8
2019-02-02T11:45:15.467Z,974.8
2019-02-02T11:46:16.832Z,974.8
2019-02-02T11:47:18.216Z,974.8
2019-02-02T11:48:19.584Z,974.8
2019-02-02T11:49:23.943Z,974.8
2019-02-02T11:50:23.122Z,974.8
2019-02-02T11:51:24.492Z,974.8
2019-02-02T11:52:26.000Z,974.8
2019-02-02T11:53:27.921Z,974.8
2019-02-02T11:54:29.268Z,974.8
2019-02-02T11:55:30.649Z,974.8
2019-02-02T11:56:32.040Z,974.8
2019-02-02T11:57:33.502Z,974.8
2019-02-02T11:58:34.868Z,974.8
2019-02-02T11:59:36.234Z,974.8
2019-02-02T12:00:37.611Z,974.8
2019-02-02T12:01:39.003Z,974.8
2019-02-02T12:02:49.168Z,974.8
2019-02-02T12:03:41.684Z,974.8
2019-02-02T12:04:43.051Z,974.8
2019-02-02T12:05:44.424Z,974.8
2019-02-02T12:06:45.787Z,974.8
2019-02-02T12:07:47.154Z,974.8
2019-02-02T12:08:49.399Z,974.9
2019-02-02T12:09:49.858Z,974.9
2019-02-02T12:10:51.451Z,974.9
2019-02-02T12:11:52.830Z,974.9
2019-02-02T12:12:54.200Z,974.9
2019-02-02T12:13:55.579Z,974.9
2019-02-02T12:14:57.140Z,974.9
2019-02-02T12:15:58.286Z,974.9
2019-02-02T12:16:59.652Z,974.9
2019-02-02T12:18:01.025Z,974.9
2019-02-02T12:19:03.289Z,974.9
2019-02-02T12:20:04.676Z,974.9
2019-02-02T12:21:06.043Z,974.9
2019-02-02T12:22:07.410Z,974.9
2019-02-02T12:23:08.800Z,974.9
2019-02-02T12:24:14.311Z,974.9
2019-02-02T12:25:11.497Z,974.9
2019-02-02T12:26:12.867Z,974.9
2019-02-02T12:27:14.256Z,974.9
2019-02-02T12:28:15.628Z,974.9
2019-02-02T12:29:16.991Z,974.9
2019-02-02T12:30:18.371Z,975.0
2019-02-02T12:31:19.773Z,974.9
2019-02-02T12:32:26.766Z,974.9
2019-02-02T12:33:22.478Z,974.9
2019-02-02T12:34:23.838Z,974.9
2019-02-02T12:35:25.213Z,974.9
2019-02-02T12:36:26.584Z,974.9
2019-02-02T12:37:27.951Z,975.0
2019-02-02T12:38:29.324Z,975.0
2019-02-02T12:39:30.739Z,975.0
2019-02-02T12:40:32.109Z,975.0
2019-02-02T12:41:33.483Z,975.0
2019-02-02T12:42:34.837Z,975.1
2019-02-02T12:43:36.194Z,975.1
2019-02-02T12:44:37.573Z,975.1
2019-02-02T12:45:38.945Z,975.1
2019-02-02T12:46:40.323Z,975.1
2019-02-02T12:47:41.681Z,975.1
2019-02-02T12:48:43.047Z,975.0
2019-02-02T12:49:44.422Z,975.0
2019-02-02T12:50:45.777Z,975.0
2019-02-02T12:51:47.148Z,975.1
2019-02-02T12:52:48.515Z,975.1
2019-02-02T12:53:49.901Z,975.1
2019-02-02T12:54:51.261Z,975.1
2019-02-02T12:55:52.636Z,975.2
2019-02-02T12:56:54.007Z,975.2
2019-02-02T12:57:55.387Z,975.2
2019-02-02T12:58:56.758Z,975.2
2019-02-02T12:59:58.133Z,975.2
2019-02-02T13:00:59.501Z,975.2
2019-02-02T13:02:00.871Z,975.2
2019-02-02T13:03:02.248Z,975.2
2019-02-02T13:04:05.534Z,975.2
2019-02-02T13:05:04.940Z,975.2
2019-02-02T13:06:06.309Z,975.2
2019-02-02T13:07:07.714Z,975.2
2019-02-02T13:08:09.076Z,975.2
2019-02-02T13:09:10.449Z,975.2
2019-02-02T13:10:11.814Z,975.2